Time;durP1;ratioP1;P1;durP2;ratioP2;P2;SDS_P1;SDS_P2;PMS_P1;PMS_P2;Temp;Humidity;BMP_temperature;BMP_pressure;BME280_temperature;BME280_humidity;BME280_pressure;Samples;Min_cycle;Max_cycle;Signal;HPM_P1;HPM_P2
2021/01/29 00:01:21;;;;;;;0.63;0.60;;;;;;;;;;4849775;28;20097;-85
2021/01/29 00:03:44;;;;;;;4.10;1.25;;;-2.40;99.90;;;;;;4849509;28;20106;-87
2021/01/29 00:06:06;;;;;;;1.20;0.75;;;-2.50;99.90;;;;;;4849258;28;20109;-88
2021/01/29 00:08:33;;;;;;;1.75;0.80;;;-2.50;99.90;;;;;;4849756;28;20096;-87
2021/01/29 00:10:55;;;;;;;0.93;0.57;;;-2.40;99.90;;;;;;4850567;28;20094;-87
2021/01/29 00:13:19;;;;;;;2.63;1.17;;;-2.40;99.90;;;;;;4846738;28;20102;-88
2021/01/29 00:15:42;;;;;;;3.70;1.00;;;-2.40;99.90;;;;;;4848269;28;20504;-88
2021/01/29 00:18:05;;;;;;;1.75;0.70;;;-2.30;99.90;;;;;;4849227;28;20117;-87
2021/01/29 00:20:29;;;;;;;0.98;0.60;;;-2.40;99.90;;;;;;4848765;28;20098;-88
2021/01/29 00:22:52;;;;;;;1.58;0.75;;;-2.40;99.90;;;;;;4849861;28;20109;-87
2021/01/29 00:25:18;;;;;;;1.35;0.77;;;-2.50;99.90;;;;;;4850434;27;20098;-87
2021/01/29 00:27:41;;;;;;;4.22;0.57;;;-2.40;99.90;;;;;;4848544;28;20106;-86
2021/01/29 00:30:06;;;;;;;1.58;0.85;;;-2.60;99.90;;;;;;4847912;28;20104;-86
2021/01/29 00:32:29;;;;;;;2.92;1.00;;;-2.90;99.90;;;;;;4847406;28;20100;-85
2021/01/29 00:34:51;;;;;;;5.63;1.20;;;-2.90;99.90;;;;;;4846852;27;20097;-85
2021/01/29 00:37:14;;;;;;;2.17;1.02;;;-3.10;99.90;;;;;;4848165;28;20094;-85
2021/01/29 00:39:37;;;;;;;2.95;1.00;;;-3.20;99.90;;;;;;4847965;28;20164;-84
2021/01/29 00:42:00;;;;;;;4.70;1.38;;;-3.20;99.90;;;;;;4846426;28;20097;-83
2021/01/29 00:44:23;;;;;;;1.45;0.68;;;-3.30;99.90;;;;;;4848972;28;20147;-84
2021/01/29 00:46:46;;;;;;;1.33;0.90;;;-3.30;99.90;;;;;;4848893;28;20091;-84
2021/01/29 00:49:08;;;;;;;3.88;0.90;;;-3.30;99.90;;;;;;4850175;28;20675;-87
2021/01/29 00:51:31;;;;;;;1.98;0.90;;;-3.40;99.90;;;;;;4830631;28;20096;-85
2021/01/29 00:53:54;;;;;;;4.57;0.88;;;-3.40;99.90;;;;;;4827028;28;20132;-86
2021/01/29 00:56:16;;;;;;;12.95;1.95;;;-3.40;99.90;;;;;;4832444;28;20118;-85
2021/01/29 00:58:40;;;;;;;2.20;0.80;;;-3.50;99.90;;;;;;4846235;27;20098;-85
2021/01/29 01:01:03;;;;;;;2.40;1.05;;;-3.40;99.90;;;;;;4846367;28;20102;-86
2021/01/29 01:03:26;;;;;;;2.60;1.33;;;-3.40;99.90;;;;;;4848601;28;20119;-83
2021/01/29 01:05:48;;;;;;;1.35;1.00;;;-3.50;99.90;;;;;;4849475;28;20098;-85
2021/01/29 01:08:11;;;;;;;2.75;0.77;;;-3.50;99.90;;;;;;4836522;28;20095;-83
2021/01/29 01:10:33;;;;;;;5.18;1.20;;;-3.50;99.90;;;;;;4863374;27;20464;-86
2021/01/29 01:12:56;;;;;;;5.13;1.10;;;-3.40;99.90;;;;;;4849019;28;20102;-84
2021/01/29 01:15:22;;;;;;;1.60;0.68;;;-3.50;99.90;;;;;;4849370;28;20094;-83
2021/01/29 01:17:45;;;;;;;9.00;1.10;;;-3.50;99.90;;;;;;4830865;28;20614;-85
2021/01/29 01:20:12;;;;;;;3.90;1.17;;;-3.60;99.90;;;;;;4861769;28;20189;-86
2021/01/29 01:22:35;;;;;;;3.45;0.80;;;-3.50;99.90;;;;;;4832827;28;20157;-84
2021/01/29 01:24:58;;;;;;;0.95;0.50;;;-3.40;99.90;;;;;;4830470;28;20108;-85
2021/01/29 01:27:20;;;;;;;14.70;0.95;;;-3.40;99.90;;;;;;4829648;27;20130;-85
2021/01/29 01:29:43;;;;;;;2.35;1.27;;;-3.40;99.90;;;;;;4829072;28;20098;-85
2021/01/29 01:32:06;;;;;;;2.05;0.77;;;-3.50;99.90;;;;;;4832020;28;20509;-84
2021/01/29 01:34:29;;;;;;;5.80;0.98;;;-3.50;99.90;;;;;;4830806;28;20271;-85
2021/01/29 01:36:52;;;;;;;4.88;0.90;;;-3.50;99.90;;;;;;4829235;28;20106;-84
2021/01/29 01:39:15;;;;;;;2.53;1.00;;;-3.50;99.90;;;;;;4829777;28;20100;-84
2021/01/29 01:41:37;;;;;;;2.30;0.88;;;-3.50;99.90;;;;;;4831856;28;20110;-84
2021/01/29 01:44:01;;;;;;;2.80;1.00;;;-3.40;99.90;;;;;;4838585;28;20450;-85
2021/01/29 01:46:24;;;;;;;2.22;0.70;;;-3.40;99.90;;;;;;4848674;27;20196;-85
2021/01/29 01:49:01;;;;;;;8.25;1.25;;;-3.50;99.90;;;;;;4849225;28;20160;-85
2021/01/29 01:51:34;;;;;;;4.60;1.33;;;-3.50;99.90;;;;;;4828060;28;20558;-85
2021/01/29 01:54:00;;;;;;;5.60;1.42;;;-3.60;99.90;;;;;;4855384;28;20110;-85
2021/01/29 01:56:30;;;;;;;5.60;1.50;;;-3.70;99.90;;;;;;4830309;27;20090;-84
2021/01/29 01:58:55;;;;;;;4.78;1.30;;;-3.80;99.90;;;;;;4830664;28;20092;-84
2021/01/29 02:01:18;;;;;;;2.72;1.20;;;-4.00;99.90;;;;;;4828701;28;20453;-84
2021/01/29 02:03:41;;;;;;;1.83;1.00;;;-4.00;99.90;;;;;;4828390;28;20098;-85
2021/01/29 02:06:06;;;;;;;6.40;0.88;;;-4.10;99.90;;;;;;4830841;28;20113;-85
2021/01/29 02:08:35;;;;;;;1.13;0.80;;;-4.30;99.90;;;;;;4826740;28;20099;-84
2021/01/29 02:10:58;;;;;;;1.10;0.70;;;-4.50;99.90;;;;;;4827763;28;20111;-84
2021/01/29 02:13:21;;;;;;;4.45;1.00;;;-4.60;99.90;;;;;;4828744;28;20103;-83
2021/01/29 02:15:49;;;;;;;2.22;1.17;;;-4.60;99.90;;;;;;4828877;28;20581;-84
2021/01/29 02:18:23;;;;;;;2.50;0.75;;;-4.60;99.90;;;;;;4847832;27;20155;-84
2021/01/29 02:21:29;;;;;;;2.95;0.93;;;-4.60;99.90;;;;;;4845676;27;20094;-83
2021/01/29 02:24:24;;;;;;;3.30;1.10;;;-4.60;99.90;;;;;;4858739;27;20488;-84
2021/01/29 02:27:25;;;;;;;2.40;1.15;;;-4.50;99.90;;;;;;4845164;27;20098;-84
2021/01/29 02:30:30;;;;;;;2.33;0.68;;;-4.50;99.90;;;;;;4848614;28;20095;-83
2021/01/29 02:33:35;;;;;;;5.93;1.08;;;-4.40;99.90;;;;;;4924661;27;20090;-83
2021/01/29 02:36:47;;;;;;;2.70;0.93;;;-4.20;99.90;;;;;;4882522;27;20090;-84
2021/01/29 02:39:32;;;;;;;4.53;1.17;;;-4.00;99.90;;;;;;4833686;28;20095;-84
2021/01/29 02:42:07;;;;;;;8.17;1.30;;;-3.90;99.90;;;;;;4828298;28;20520;-84
2021/01/29 02:44:49;;;;;;;7.00;1.38;;;-3.90;99.90;;;;;;4845362;28;20102;-84
2021/01/29 02:47:20;;;;;;;2.88;1.17;;;-3.90;99.90;;;;;;4845103;28;20098;-84
2021/01/29 02:50:02;;;;;;;1.77;0.90;;;-4.00;99.90;;;;;;4824998;28;20152;-81
2021/01/29 02:52:33;;;;;;;9.43;1.15;;;-4.20;99.90;;;;;;4845118;27;20137;-83
2021/01/29 02:55:06;;;;;;;3.97;0.93;;;-4.40;99.90;;;;;;4846284;27;20089;-84
2021/01/29 02:57:36;;;;;;;3.38;1.33;;;-4.60;99.90;;;;;;4844819;27;20106;-83
2021/01/29 03:00:07;;;;;;;7.20;1.00;;;-4.70;99.90;;;;;;4844238;27;20105;-84
2021/01/29 03:02:34;;;;;;;3.92;1.17;;;-4.80;99.90;;;;;;4824664;28;20101;-83
2021/01/29 03:05:02;;;;;;;1.85;1.00;;;-4.90;99.90;;;;;;4826804;28;20108;-83
2021/01/29 03:07:33;;;;;;;2.50;1.27;;;-5.00;99.90;;;;;;4832195;28;20095;-83
2021/01/29 03:10:04;;;;;;;2.85;1.13;;;-5.10;99.90;;;;;;4829876;27;20329;-82
2021/01/29 03:12:32;;;;;;;6.95;1.58;;;-5.10;99.90;;;;;;4860769;27;20470;-83
2021/01/29 03:15:03;;;;;;;1.90;0.82;;;-5.10;99.90;;;;;;4848036;27;20091;-83
2021/01/29 03:17:31;;;;;;;6.72;1.23;;;-5.00;99.90;;;;;;4840700;27;20116;-83
2021/01/29 03:20:00;;;;;;;4.55;1.33;;;-5.00;99.90;;;;;;4845424;27;20132;-83
2021/01/29 03:22:27;;;;;;;3.15;0.80;;;-4.90;99.90;;;;;;4848832;27;20167;-83
2021/01/29 03:24:55;;;;;;;2.72;0.80;;;-4.80;99.90;;;;;;4847065;27;20111;-82
2021/01/29 03:27:23;;;;;;;7.07;0.95;;;-4.80;99.90;;;;;;4848660;28;20124;-83
2021/01/29 03:29:57;;;;;;;8.13;1.42;;;-4.80;99.90;;;;;;4879818;27;20111;-83
2021/01/29 03:32:22;;;;;;;2.25;1.10;;;-4.80;99.90;;;;;;4847418;27;20106;-83
2021/01/29 03:34:51;;;;;;;2.88;0.90;;;-4.80;99.90;;;;;;4838804;27;20163;-83
2021/01/29 03:37:23;;;;;;;2.17;1.15;;;-4.70;99.90;;;;;;4848057;27;20600;-84
2021/01/29 03:39:46;;;;;;;2.40;1.10;;;-4.60;99.90;;;;;;4848372;27;20153;-83
2021/01/29 03:42:23;;;;;;;3.33;0.90;;;-4.50;99.90;;;;;;4834204;28;20102;-83
2021/01/29 03:44:50;;;;;;;8.38;1.10;;;-4.40;99.90;;;;;;4885247;27;20101;-83
2021/01/29 03:47:20;;;;;;;4.90;1.65;;;-4.50;99.90;;;;;;4830819;28;20096;-84
2021/01/29 03:49:48;;;;;;;8.13;1.10;;;-4.40;99.90;;;;;;4849212;28;20163;-83
2021/01/29 03:52:16;;;;;;;3.75;0.90;;;-4.40;99.90;;;;;;4848944;27;20172;-83
2021/01/29 03:54:54;;;;;;;2.75;1.13;;;-4.40;99.90;;;;;;4846955;27;20096;-84
2021/01/29 03:57:24;;;;;;;5.13;1.00;;;-4.40;99.90;;;;;;4851762;27;20193;-83
2021/01/29 04:00:02;;;;;;;2.63;0.88;;;-4.40;99.90;;;;;;4830631;28;20100;-84
2021/01/29 04:02:30;;;;;;;12.35;1.50;;;-4.40;99.90;;;;;;4830403;28;20114;-84
2021/01/29 04:05:04;;;;;;;10.27;1.23;;;-4.50;99.90;;;;;;4847392;28;20114;-83
2021/01/29 04:07:33;;;;;;;4.55;1.63;;;-4.50;99.90;;;;;;4857091;28;20618;-83
2021/01/29 04:10:01;;;;;;;4.35;0.95;;;-4.60;99.90;;;;;;4853471;27;20103;-84
2021/01/29 04:12:30;;;;;;;7.88;1.20;;;-4.50;99.90;;;;;;4827629;28;20110;-84
2021/01/29 04:15:03;;;;;;;6.72;1.65;;;-4.40;99.90;;;;;;4829299;28;20107;-83
2021/01/29 04:17:31;;;;;;;3.72;1.60;;;-4.40;99.90;;;;;;4846278;27;20099;-83
2021/01/29 04:20:01;;;;;;;4.20;1.48;;;-4.50;99.90;;;;;;4833459;28;20099;-83
2021/01/29 04:22:30;;;;;;;3.95;1.17;;;-4.60;99.90;;;;;;4829946;28;20511;-84
2021/01/29 04:24:59;;;;;;;5.50;1.10;;;-4.70;99.90;;;;;;4913036;27;20520;-83
2021/01/29 04:27:28;;;;;;;4.50;1.20;;;-4.80;99.90;;;;;;4829220;28;20118;-83
2021/01/29 04:29:56;;;;;;;12.90;1.42;;;-5.00;99.90;;;;;;4837556;27;20098;-82
2021/01/29 04:32:23;;;;;;;2.72;1.02;;;-7.30;99.90;;;;;;4833199;28;20114;-82
2021/01/29 04:34:51;;;;;;;5.20;1.15;;;-5.30;99.90;;;;;;4830088;28;20161;-83
2021/01/29 04:37:18;;;;;;;2.35;0.88;;;-5.30;99.90;;;;;;4829666;28;20094;-83
2021/01/29 04:39:45;;;;;;;3.60;1.10;;;-5.30;99.90;;;;;;4830252;28;20108;-82
2021/01/29 04:42:25;;;;;;;6.68;1.23;;;-5.30;99.90;;;;;;4827553;28;20110;-82
2021/01/29 04:45:25;;;;;;;2.63;0.93;;;-5.20;99.90;;;;;;4846683;27;20134;-81
2021/01/29 04:47:53;;;;;;;2.90;0.95;;;-5.00;99.90;;;;;;4846062;27;20105;-83
2021/01/29 04:50:27;;;;;;;2.53;1.00;;;-4.90;99.90;;;;;;4846270;27;20102;-82
2021/01/29 04:53:13;;;;;;;3.47;1.02;;;-5.00;99.90;;;;;;4847683;27;20105;-82
2021/01/29 04:56:12;;;;;;;2.20;1.02;;;-4.90;99.90;;;;;;4846301;27;20114;-83
2021/01/29 04:58:41;;;;;;;4.63;1.13;;;-4.60;99.90;;;;;;4846847;28;20099;-83
2021/01/29 05:01:44;;;;;;;3.13;1.23;;;-4.50;99.90;;;;;;4909779;27;20101;-83
2021/01/29 05:04:29;;;;;;;2.60;1.10;;;-4.40;99.90;;;;;;4833034;28;20117;-83
2021/01/29 05:07:32;;;;;;;2.20;1.20;;;-4.40;99.90;;;;;;4860701;27;20134;-84
2021/01/29 05:10:24;;;;;;;5.65;0.82;;;-4.40;99.90;;;;;;4845805;28;20432;-81
2021/01/29 05:13:16;;;;;;;2.88;1.00;;;-4.50;99.90;;;;;;4926460;27;20104;-84
2021/01/29 05:16:09;;;;;;;6.03;1.48;;;-4.50;99.90;;;;;;4846851;27;20098;-83
2021/01/29 05:19:00;;;;;;;1.08;0.60;;;-4.50;99.90;;;;;;4846221;27;20107;-83
2021/01/29 05:21:47;;;;;;;2.25;1.10;;;-4.50;99.90;;;;;;4846086;27;20536;-83
2021/01/29 05:24:26;;;;;;;1.42;0.77;;;-4.50;99.90;;;;;;4844482;28;20194;-83
2021/01/29 05:27:25;;;;;;;1.98;1.08;;;-4.50;99.90;;;;;;4845783;27;20605;-82
2021/01/29 05:30:00;;;;;;;2.67;1.10;;;-4.40;99.90;;;;;;4854911;27;20541;-83
2021/01/29 05:32:36;;;;;;;7.22;1.60;;;-4.40;99.90;;;;;;4845780;27;20109;-83
2021/01/29 05:35:22;;;;;;;4.57;1.73;;;-3.40;99.90;;;;;;4839988;28;20102;-83
2021/01/29 05:38:38;;;;;;;3.10;1.08;;;-4.30;99.90;;;;;;4845765;28;20094;-83
2021/01/29 05:41:33;;;;;;;2.38;1.20;;;-4.20;99.90;;;;;;4882483;28;20092;-83
2021/01/29 05:44:24;;;;;;;4.70;1.20;;;-4.20;99.90;;;;;;4845099;27;20567;-82
2021/01/29 05:47:04;;;;;;;1.73;0.73;;;-4.10;99.90;;;;;;4924369;27;20102;-83
2021/01/29 05:49:30;;;;;;;14.68;1.35;;;-4.20;99.90;;;;;;4845464;28;20107;-83
2021/01/29 05:52:32;;;;;;;9.93;1.48;;;-4.30;99.90;;;;;;4847637;28;20090;-83
2021/01/29 05:55:31;;;;;;;8.98;1.10;;;-4.40;99.90;;;;;;4849493;27;20104;-84
2021/01/29 05:58:15;;;;;;;3.63;1.00;;;-4.50;99.90;;;;;;4866042;28;20155;-84
2021/01/29 06:00:56;;;;;;;3.95;1.23;;;-4.50;99.90;;;;;;4882165;28;20095;-83
2021/01/29 06:03:44;;;;;;;1.77;0.90;;;-4.50;99.90;;;;;;4858716;28;20106;-83
2021/01/29 06:06:35;;;;;;;6.00;1.20;;;-4.50;99.90;;;;;;4846799;28;21052;-83
2021/01/29 06:09:26;;;;;;;8.73;1.02;;;-4.40;99.90;;;;;;4841387;27;20601;-83
2021/01/29 06:12:16;;;;;;;2.42;1.15;;;-4.50;99.90;;;;;;4857947;27;20098;-82
2021/01/29 06:15:08;;;;;;;4.30;1.02;;;-4.50;99.90;;;;;;4845447;28;20102;-83
2021/01/29 06:18:08;;;;;;;1.48;0.80;;;-4.50;99.90;;;;;;4831146;28;20127;-83
2021/01/29 06:21:09;;;;;;;6.28;1.52;;;-4.50;99.90;;;;;;4845119;28;20447;-83
2021/01/29 06:24:17;;;;;;;1.33;0.93;;;-4.50;99.90;;;;;;4844768;28;20535;-83
2021/01/29 06:27:03;;;;;;;9.07;1.20;;;-4.50;99.90;;;;;;4838162;27;20095;-83
2021/01/29 06:29:29;;;;;;;4.50;1.73;;;-4.50;99.90;;;;;;4845429;27;20106;-84
2021/01/29 06:32:27;;;;;;;3.75;1.50;;;-4.50;99.90;;;;;;4847269;27;20575;-83
2021/01/29 06:35:22;;;;;;;2.75;1.08;;;-4.50;99.90;;;;;;4844786;27;20183;-84
2021/01/29 06:37:58;;;;;;;4.57;1.60;;;-4.50;99.90;;;;;;4841845;28;20087;-83
2021/01/29 06:40:27;;;;;;;13.75;3.25;;;-4.50;99.90;;;;;;4856794;28;20439;-84
2021/01/29 06:43:38;;;;;;;7.05;2.67;;;-4.50;99.90;;;;;;4828010;28;20423;-83
2021/01/29 06:46:27;;;;;;;3.15;1.80;;;-4.50;99.90;;;;;;4822880;28;20538;-82
2021/01/29 06:49:26;;;;;;;3.85;1.33;;;-4.70;99.90;;;;;;4844473;27;20479;-83
2021/01/29 06:52:18;;;;;;;6.43;1.38;;;-4.70;99.90;;;;;;4844031;28;20219;-83
2021/01/29 06:55:22;;;;;;;7.07;1.55;;;-4.70;99.90;;;;;;4849111;27;20107;-83
2021/01/29 06:58:06;;;;;;;2.80;1.50;;;-4.70;99.90;;;;;;4836041;28;20123;-82
2021/01/29 07:01:10;;;;;;;5.80;1.50;;;-4.70;99.90;;;;;;4844079;27;20102;-83
2021/01/29 07:04:19;;;;;;;8.48;1.92;;;-4.60;99.90;;;;;;4828465;28;20531;-83
2021/01/29 07:06:56;;;;;;;3.60;1.38;;;-4.60;99.90;;;;;;4816340;28;20460;-83
2021/01/29 07:09:32;;;;;;;8.30;1.40;;;-4.70;99.90;;;;;;4846201;28;20090;-83
2021/01/29 07:12:20;;;;;;;4.60;1.25;;;-4.80;99.90;;;;;;4859360;27;20151;-83
2021/01/29 07:14:57;;;;;;;4.32;1.40;;;-4.80;99.90;;;;;;4843927;28;20094;-82
2021/01/29 07:17:38;;;;;;;2.70;1.48;;;-4.70;99.90;;;;;;4843406;27;20099;-83
2021/01/29 07:20:16;;;;;;;2.95;1.23;;;-4.60;99.90;;;;;;4826309;28;20137;-83
2021/01/29 07:23:09;;;;;;;5.25;1.60;;;-4.60;99.90;;;;;;4843141;28;20097;-83
2021/01/29 07:25:38;;;;;;;9.90;1.75;;;-4.50;99.90;;;;;;4892040;27;20118;-84
2021/01/29 07:28:17;;;;;;;2.67;1.45;;;-4.40;99.90;;;;;;4846339;27;20539;-83
2021/01/29 07:30:56;;;;;;;3.55;1.52;;;-4.30;99.90;;;;;;4860477;28;20124;-83
2021/01/29 07:33:29;;;;;;;5.18;1.27;;;-4.10;99.90;;;;;;4843755;28;20093;-83
2021/01/29 07:36:17;;;;;;;11.10;1.92;;;-3.90;99.90;;;;;;4845714;28;20114;-83
2021/01/29 07:39:07;;;;;;;4.32;1.27;;;-3.70;99.90;;;;;;4845417;28;20109;-83
2021/01/29 07:41:46;;;;;;;3.80;1.58;;;-3.60;99.90;;;;;;4832537;28;20116;-84
2021/01/29 07:44:29;;;;;;;2.50;1.23;;;-3.40;99.90;;;;;;4843197;27;20926;-83
2021/01/29 07:47:10;;;;;;;10.68;1.55;;;-3.10;99.90;;;;;;4844176;27;20114;-82
2021/01/29 07:49:46;;;;;;;4.65;1.65;;;-2.80;99.90;;;;;;4843983;28;20185;-84
2021/01/29 07:52:25;;;;;;;6.80;1.85;;;-2.50;99.90;;;;;;4846681;28;20104;-83
2021/01/29 07:54:56;;;;;;;2.90;1.50;;;-2.40;99.90;;;;;;4843874;27;20108;-84
2021/01/29 07:57:38;;;;;;;9.10;1.92;;;-2.40;99.90;;;;;;4840450;27;20110;-84
2021/01/29 08:00:15;;;;;;;3.88;1.60;;;-2.40;99.90;;;;;;4845653;28;20091;-84
2021/01/29 08:03:12;;;;;;;1.90;1.33;;;-2.50;99.90;;;;;;4867252;27;20102;-84
2021/01/29 08:05:44;;;;;;;4.20;1.95;;;-2.60;99.90;;;;;;4843039;27;20193;-83
2021/01/29 08:08:15;;;;;;;6.30;2.10;;;-2.60;99.90;;;;;;4839530;27;20106;-84
2021/01/29 08:10:48;;;;;;;4.60;1.60;;;-2.70;99.90;;;;;;4805958;27;20108;-83
2021/01/29 08:13:20;;;;;;;8.93;2.05;;;-2.70;99.90;;;;;;4830023;27;20117;-84
2021/01/29 08:16:00;;;;;;;4.00;1.50;;;-2.70;99.90;;;;;;4809884;28;20127;-84
2021/01/29 08:18:57;;;;;;;4.93;1.80;;;-2.60;99.90;;;;;;4811123;28;20096;-82
2021/01/29 08:21:59;;;;;;;8.63;1.63;;;-2.60;99.90;;;;;;4838615;27;20110;-83
2021/01/29 08:24:55;;;;;;;5.60;1.90;;;-2.50;99.90;;;;;;4807643;28;20100;-83
2021/01/29 08:28:04;;;;;;;3.30;1.73;;;-1.90;99.90;;;;;;4824063;27;20098;-84
2021/01/29 08:30:46;;;;;;;8.57;2.10;;;-2.40;99.90;;;;;;4789248;27;20160;-84
2021/01/29 08:33:49;;;;;;;10.00;2.20;;;-2.40;99.90;;;;;;4790408;27;20109;-84
2021/01/29 08:36:34;;;;;;;4.18;1.92;;;-2.30;99.90;;;;;;4797087;27;20159;-85
2021/01/29 08:39:29;;;;;;;10.15;2.17;;;-2.20;99.90;;;;;;4803162;28;20101;-85
2021/01/29 08:42:07;;;;;;;4.97;2.20;;;-2.10;99.90;;;;;;4794971;27;20147;-85
2021/01/29 08:45:00;;;;;;;6.13;2.35;;;-1.90;99.90;;;;;;4811784;27;20115;-85
2021/01/29 08:47:43;;;;;;;8.80;2.05;;;-1.80;99.90;;;;;;4791123;27;20150;-86
2021/01/29 08:50:38;;;;;;;5.40;2.22;;;-1.60;99.90;;;;;;4869300;27;20104;-85
2021/01/29 08:53:47;;;;;;;4.57;1.98;;;-1.40;99.90;;;;;;4792582;28;20098;-84
2021/01/29 08:56:41;;;;;;;8.27;2.30;;;-1.30;99.90;;;;;;4838772;27;20097;-87
2021/01/29 08:59:28;;;;;;;3.25;1.98;;;-1.30;99.90;;;;;;4798221;28;20151;-87
2021/01/29 09:02:15;;;;;;;5.72;1.98;;;-1.20;99.90;;;;;;4802313;27;20113;-86
2021/01/29 09:05:01;;;;;;;3.25;1.90;;;-1.20;99.90;;;;;;4792433;28;20090;-85
2021/01/29 09:07:48;;;;;;;4.22;1.75;;;-1.40;99.90;;;;;;4808376;27;20106;-86
2021/01/29 09:10:37;;;;;;;5.20;2.03;;;-1.20;99.90;;;;;;4787841;27;20398;-86
2021/01/29 09:13:15;;;;;;;6.25;1.80;;;-1.30;99.90;;;;;;4790813;28;20104;-87
2021/01/29 09:15:57;;;;;;;3.92;1.92;;;-1.30;99.90;;;;;;4809358;27;20149;-87
2021/01/29 09:18:38;;;;;;;2.85;1.60;;;-1.40;99.90;;;;;;4810784;27;20101;-86
2021/01/29 09:21:11;;;;;;;4.32;1.75;;;-1.20;99.90;;;;;;4803026;27;20127;-87
2021/01/29 09:24:13;;;;;;;6.57;2.15;;;-1.10;99.90;;;;;;4881699;27;20709;-88
2021/01/29 09:26:44;;;;;;;6.88;1.80;;;-0.70;99.90;;;;;;4800033;27;20107;-87
2021/01/29 09:29:20;;;;;;;6.80;2.20;;;-0.70;99.90;;;;;;4823698;27;20087;-90
2021/01/29 09:31:58;;;;;;;12.52;2.00;;;-0.60;99.90;;;;;;4852170;27;20090;-88
2021/01/29 09:34:38;;;;;;;10.85;2.05;;;-0.30;99.90;;;;;;4790751;28;20896;-90
2021/01/29 09:37:10;;;;;;;6.68;2.20;;;0.00;99.90;;;;;;4830734;27;20086;-90
2021/01/29 09:39:39;;;;;;;5.53;2.40;;;0.10;99.90;;;;;;4810328;27;20119;-85
2021/01/29 09:42:12;;;;;;;6.35;2.53;;;0.20;99.90;;;;;;4827224;28;20106;-89
2021/01/29 09:44:44;;;;;;;2.92;1.83;;;0.40;99.90;;;;;;4804524;28;20096;-87
2021/01/29 09:47:21;;;;;;;6.15;2.45;;;0.50;99.90;;;;;;4819138;28;20606;-90
2021/01/29 09:50:13;;;;;;;6.35;2.15;;;0.70;99.90;;;;;;4779952;27;20097;-93
2021/01/29 09:52:58;;;;;;;4.53;2.05;;;1.00;99.90;;;;;;4846608;27;20122;-92
2021/01/29 09:55:32;;;;;;;3.33;1.90;;;1.20;99.90;;;;;;4815608;27;20100;-92
2021/01/29 10:01:51;;;;;;;5.82;2.42;;;1.80;99.90;;;;;;4812367;28;20082;-93
2021/01/29 10:04:53;;;;;;;12.20;2.28;;;1.90;99.90;;;;;;4794581;28;20086;-93
2021/01/29 10:07:33;;;;;;;6.07;1.63;;;2.30;99.90;;;;;;4792942;28;20156;-90
2021/01/29 10:10:07;;;;;;;7.97;2.53;;;2.50;99.90;;;;;;4800380;27;20088;-90
2021/01/29 10:12:39;;;;;;;6.05;2.33;;;2.70;99.90;;;;;;4813003;28;20167;-91
2021/01/29 10:15:11;;;;;;;4.22;2.08;;;2.90;99.90;;;;;;4797868;28;20093;-87
2021/01/29 10:17:55;;;;;;;8.50;2.17;;;2.80;99.90;;;;;;4840630;28;20179;-88
2021/01/29 10:20:25;;;;;;;9.40;1.98;;;2.60;99.90;;;;;;4844713;27;20429;-90
2021/01/29 10:23:18;;;;;;;5.40;1.80;;;2.50;99.90;;;;;;4877694;27;20543;-85
2021/01/29 10:26:16;;;;;;;10.05;1.80;;;2.40;99.90;;;;;;4817973;27;20090;-87
2021/01/29 10:29:10;;;;;;;3.80;1.25;;;2.20;99.90;;;;;;4837490;27;20112;-87
2021/01/29 10:31:44;;;;;;;5.25;1.90;;;2.00;99.90;;;;;;4815851;28;20089;-86
2021/01/29 10:34:32;;;;;;;5.10;1.70;;;1.80;99.90;;;;;;4799556;28;20091;-86
2021/01/29 10:37:44;;;;;;;8.00;3.53;;;1.80;99.90;;;;;;4820341;28;20476;-83
2021/01/29 10:40:46;;;;;;;32.55;9.52;;;1.90;99.90;;;;;;4813187;28;20081;-86
2021/01/29 10:43:18;;;;;;;4.93;2.35;;;1.80;99.90;;;;;;4807976;28;20110;-87
2021/01/29 10:46:05;;;;;;;8.48;2.60;;;1.50;99.90;;;;;;4826414;28;20087;-88
2021/01/29 10:48:57;;;;;;;7.97;3.70;;;1.50;99.90;;;;;;4824725;28;20095;-87
2021/01/29 10:51:43;;;;;;;3.70;1.60;;;1.70;99.90;;;;;;4827837;28;20093;-88
2021/01/29 10:54:08;;;;;;;9.02;1.88;;;1.80;99.90;;;;;;4824910;28;20105;-85
2021/01/29 10:56:43;;;;;;;2.38;1.20;;;1.50;99.90;;;;;;4830698;28;20089;-87
2021/01/29 10:59:15;;;;;;;4.72;1.90;;;1.60;99.90;;;;;;4826895;28;20096;-84
2021/01/29 11:01:40;;;;;;;5.90;1.70;;;1.80;99.90;;;;;;4830327;28;20095;-87
2021/01/29 11:04:20;;;;;;;4.97;1.58;;;1.60;99.90;;;;;;4830762;28;20526;-85
2021/01/29 11:06:48;;;;;;;2.53;1.08;;;1.60;99.90;;;;;;4830406;28;20139;-86
2021/01/29 11:09:53;;;;;;;2.50;1.23;;;1.50;99.90;;;;;;4831485;28;20104;-86
2021/01/29 11:12:31;;;;;;;3.65;1.50;;;1.50;99.90;;;;;;4824301;28;20104;-85
2021/01/29 11:14:58;;;;;;;2.60;0.77;;;1.50;99.90;;;;;;4829219;28;20492;-84
2021/01/29 11:17:33;;;;;;;7.05;1.08;;;1.30;99.90;;;;;;4830443;28;20089;-87
2021/01/29 11:23:12;;;;;;;5.32;0.93;;;1.10;99.90;;;;;;4827921;28;20085;-86
2021/01/29 11:25:50;;;;;;;1.83;1.08;;;1.10;99.90;;;;;;4817671;28;20516;-87
2021/01/29 11:28:31;;;;;;;2.92;1.08;;;1.00;99.90;;;;;;4833567;28;20142;-87
2021/01/29 11:31:18;;;;;;;1.05;0.60;;;0.90;99.90;;;;;;4834644;28;20554;-85
2021/01/29 11:33:47;;;;;;;1.45;1.00;;;0.80;99.90;;;;;;4824235;28;20103;-84
2021/01/29 11:36:25;;;;;;;2.53;1.25;;;0.70;99.90;;;;;;4851692;28;20120;-86
2021/01/29 11:39:17;;;;;;;2.03;1.05;;;0.70;99.90;;;;;;4829101;28;20096;-86
2021/01/29 11:41:50;;;;;;;1.60;1.00;;;0.80;99.90;;;;;;4824968;28;20119;-87
2021/01/29 11:44:35;;;;;;;1.58;1.02;;;0.80;99.90;;;;;;4832343;28;20107;-85
2021/01/29 11:47:09;;;;;;;3.03;1.45;;;0.80;99.90;;;;;;4817323;28;20091;-85
2021/01/29 11:49:37;;;;;;;6.10;1.30;;;0.80;99.90;;;;;;4834613;28;20089;-86
2021/01/29 11:52:08;;;;;;;3.08;1.20;;;0.80;99.90;;;;;;4807045;28;20094;-86
2021/01/29 11:54:46;;;;;;;1.17;0.80;;;0.80;99.90;;;;;;4808572;28;20096;-83
2021/01/29 11:57:22;;;;;;;1.85;0.80;;;0.80;99.90;;;;;;4851214;28;20174;-87
2021/01/29 12:00:11;;;;;;;4.40;0.98;;;0.80;99.90;;;;;;4813046;28;20101;-86
2021/01/29 12:02:37;;;;;;;1.85;0.93;;;0.90;99.90;;;;;;4829448;28;20112;-87
2021/01/29 12:05:22;;;;;;;1.35;0.90;;;1.00;99.90;;;;;;4837556;28;20150;-88
2021/01/29 12:08:19;;;;;;;2.78;0.75;;;1.00;99.90;;;;;;4829184;28;20442;-88
2021/01/29 12:11:05;;;;;;;1.92;0.40;;;0.90;99.90;;;;;;4845520;28;20116;-85
2021/01/29 12:13:52;;;;;;;0.88;0.60;;;0.90;99.90;;;;;;4820963;28;20089;-87
2021/01/29 12:16:21;;;;;;;3.88;0.68;;;0.90;99.90;;;;;;4830088;28;20130;-86
2021/01/29 12:18:47;;;;;;;1.48;0.88;;;0.90;99.90;;;;;;4825279;28;20083;-87
2021/01/29 12:21:19;;;;;;;1.50;0.90;;;0.90;99.90;;;;;;4833126;28;20093;-87
2021/01/29 12:23:50;;;;;;;0.77;0.50;;;0.90;99.90;;;;;;4828525;28;20832;-87
2021/01/29 12:29:33;;;;;;;1.55;0.80;;;0.80;99.90;;;;;;4825146;28;20090;-86
2021/01/29 12:35:10;;;;;;;1.85;0.75;;;0.80;99.90;;;;;;4826287;28;20313;-87
2021/01/29 12:37:36;;;;;;;9.80;0.98;;;0.70;99.90;;;;;;4829311;28;20525;-84
2021/01/29 12:40:05;;;;;;;2.38;0.70;;;0.70;99.90;;;;;;4834082;28;20533;-86
2021/01/29 12:42:55;;;;;;;1.30;0.75;;;0.70;99.90;;;;;;4833323;28;20100;-84
2021/01/29 12:45:24;;;;;;;0.95;0.55;;;0.70;99.90;;;;;;4824015;28;20103;-88
2021/01/29 12:48:08;;;;;;;2.10;0.60;;;0.60;99.90;;;;;;4830802;28;20112;-87
2021/01/29 12:51:04;;;;;;;1.42;0.60;;;0.50;99.90;;;;;;4832486;28;20084;-86
2021/01/29 12:53:34;;;;;;;3.25;1.13;;;0.50;99.90;;;;;;4828012;28;20089;-87
2021/01/29 12:56:11;;;;;;;4.13;1.20;;;0.50;99.90;;;;;;4813869;27;20101;-87
2021/01/29 12:58:41;;;;;;;1.50;0.93;;;0.50;99.90;;;;;;4827453;28;20093;-86
2021/01/29 13:01:08;;;;;;;1.27;0.52;;;0.50;99.90;;;;;;4809530;28;20206;-84
2021/01/29 13:03:46;;;;;;;1.67;0.93;;;0.60;99.90;;;;;;4833369;28;20097;-87
2021/01/29 13:06:35;;;;;;;1.63;0.90;;;0.60;99.90;;;;;;4830263;28;20140;-83
2021/01/29 13:09:32;;;;;;;2.67;0.85;;;0.50;99.90;;;;;;4827232;28;20083;-87
2021/01/29 13:12:19;;;;;;;1.48;0.90;;;0.50;99.90;;;;;;4829032;28;20096;-88
2021/01/29 13:14:58;;;;;;;1.48;0.98;;;0.50;99.90;;;;;;4816892;28;20094;-85
2021/01/29 13:17:29;;;;;;;2.70;1.02;;;0.60;99.90;;;;;;4826290;28;20091;-89
2021/01/29 13:20:07;;;;;;;1.35;0.90;;;0.60;99.90;;;;;;4814854;28;20106;-88
2021/01/29 13:22:52;;;;;;;1.95;0.88;;;0.60;99.90;;;;;;4829628;28;20092;-87
2021/01/29 13:25:26;;;;;;;1.45;1.00;;;0.70;99.90;;;;;;4820480;28;20144;-88
2021/01/29 13:28:09;;;;;;;3.33;1.20;;;0.70;99.90;;;;;;4880370;28;20088;-87
2021/01/29 13:30:37;;;;;;;5.00;1.48;;;0.60;99.90;;;;;;4829431;28;20470;-86
2021/01/29 13:33:12;;;;;;;2.78;1.05;;;0.60;99.90;;;;;;4860970;28;20084;-87
2021/01/29 13:35:47;;;;;;;2.08;0.90;;;0.50;99.90;;;;;;4822997;28;20102;-86
2021/01/29 13:38:17;;;;;;;2.45;1.05;;;0.40;99.90;;;;;;4826418;28;20087;-89
2021/01/29 13:40:45;;;;;;;2.20;0.98;;;0.50;99.90;;;;;;4880094;28;20251;-88
2021/01/29 13:43:18;;;;;;;1.88;1.08;;;0.50;99.90;;;;;;4819175;28;20091;-89
2021/01/29 13:45:47;;;;;;;4.45;0.88;;;0.50;99.90;;;;;;4811027;28;20086;-88
2021/01/29 13:48:17;;;;;;;1.52;0.70;;;0.60;99.90;;;;;;4829296;28;20093;-89
2021/01/29 13:50:46;;;;;;;0.60;0.60;;;0.60;99.90;;;;;;4861045;27;20149;-89
2021/01/29 13:53:17;;;;;;;1.20;0.90;;;0.60;99.90;;;;;;4827736;27;20092;-89
2021/01/29 13:55:53;;;;;;;2.30;1.00;;;0.60;99.90;;;;;;4834857;28;20099;-88
2021/01/29 13:58:23;;;;;;;1.20;0.70;;;0.60;99.90;;;;;;4828361;28;23086;-89